Time;durP1;ratioP1;P1;durP2;ratioP2;P2;SDS_P1;SDS_P2;PMS_P1;PMS_P2;Temp;Humidity;BMP_temperature;BMP_pressure;BME280_temperature;BME280_humidity;BME280_pressure;Samples;Min_cycle;Max_cycle;Signal;HPM_P1;HPM_P2
2021/04/17 00:01:46;;;;;;;;;20.00;18.00;;;;;;;;3724567;37;20787;-58
2021/04/17 00:04:14;;;;;;;;;21.50;20.50;;;;;;;;3724634;38;17928;-59
2021/04/17 00:06:41;;;;;;;;;21.25;19.50;;;;;;;;3725154;38;17818;-58
2021/04/17 00:09:09;;;;;;;;;23.00;23.00;;;;;;;;3725032;37;20903;-58
2021/04/17 00:11:35;;;;;;;;;21.00;18.50;;;;;;;;3725093;37;20937;-58
2021/04/17 00:14:01;;;;;;;;;18.50;18.00;;;;;;;;3725282;37;20930;-58
2021/04/17 00:16:26;;;;;;;;;18.25;17.75;;;;;;;;3725170;38;20926;-58
2021/04/17 00:18:53;;;;;;;;;21.75;21.75;;;;;;;;3725030;37;17823;-58
2021/04/17 00:21:19;;;;;;;;;20.50;20.50;;;;;;;;3725198;37;17805;-58
2021/04/17 00:23:45;;;;;;;;;21.00;20.00;;;;;;;;3725231;38;20893;-58
2021/04/17 00:26:11;;;;;;;;;21.75;20.25;;;;;;;;3725437;37;17806;-58
2021/04/17 00:28:37;;;;;;;;;20.00;19.00;;;;;;;;3724989;37;17810;-57
2021/04/17 00:31:02;;;;;;;;;25.25;21.25;;;;;;;;3725129;37;17793;-57
2021/04/17 00:33:29;;;;;;;;;21.00;19.50;;;;;;;;3725254;37;20904;-58
2021/04/17 00:36:00;;;;;;;;;22.25;18.50;;;;;;;;3725190;38;17790;-58
2021/04/17 00:38:28;;;;;;;;;21.50;21.00;;;;;;;;3725111;38;20891;-58
2021/04/17 00:40:54;;;;;;;;;21.50;20.50;;;;;;;;3724992;37;20885;-57
2021/04/17 00:43:20;;;;;;;;;17.75;16.50;;;;;;;;3725171;37;20854;-58
2021/04/17 00:45:46;;;;;;;;;23.50;21.50;;;;;;;;3725010;37;21089;-57
2021/04/17 00:48:13;;;;;;;;;19.50;18.75;;;;;;;;3725142;37;17785;-58
2021/04/17 00:50:39;;;;;;;;;20.50;20.50;;;;;;;;3725223;38;17767;-58
2021/04/17 00:53:06;;;;;;;;;19.00;16.00;;;;;;;;3725195;37;20855;-58
2021/04/17 00:55:31;;;;;;;;;18.75;18.00;;;;;;;;3725115;38;20806;-59
2021/04/17 00:57:57;;;;;;;;;22.25;21.00;;;;;;;;3725009;38;20848;-59
2021/04/17 01:00:23;;;;;;;;;19.75;17.75;;;;;;;;3725457;38;17769;-59
2021/04/17 01:03:01;;;;;;;;;19.25;16.50;;;;;;;;3725163;37;17768;-58
2021/04/17 01:05:29;;;;;;;;;17.25;15.00;;;;;;;;3725225;37;20860;-58
2021/04/17 01:07:57;;;;;;;;;19.75;18.25;;;;;;;;3725267;38;20854;-59
2021/04/17 01:10:42;;;;;;;;;20.00;18.75;;;;;;;;3725141;37;20849;-59
2021/04/17 01:13:09;;;;;;;;;18.25;17.25;;;;;;;;3725168;37;20819;-58
2021/04/17 01:15:36;;;;;;;;;19.25;16.00;;;;;;;;3724726;37;20819;-60
2021/04/17 01:18:02;;;;;;;;;20.25;18.00;;;;;;;;3725258;37;20843;-60
2021/04/17 01:20:54;;;;;;;;;23.50;20.00;;;;;;;;3725260;37;20826;-59
2021/04/17 01:23:58;;;;;;;;;20.75;19.25;;;;;;;;3725313;38;20820;-59
2021/04/17 01:26:27;;;;;;;;;19.00;17.50;;;;;;;;3725303;37;20835;-58
2021/04/17 01:28:55;;;;;;;;;22.50;16.50;;;;;;;;3725350;38;20870;-59
2021/04/17 01:31:22;;;;;;;;;13.75;13.75;;;;;;;;3725515;37;20832;-58
2021/04/17 01:33:51;;;;;;;;;24.25;22.50;;;;;;;;3725301;37;20805;-58
2021/04/17 01:36:17;;;;;;;;;21.00;20.25;;;;;;;;3724935;38;20803;-59
2021/04/17 01:38:55;;;;;;;;;22.25;20.25;;;;;;;;3724862;38;20784;-59
2021/04/17 01:41:30;;;;;;;;;19.00;16.25;;;;;;;;3724902;38;20787;-59
2021/04/17 01:43:58;;;;;;;;;18.50;18.50;;;;;;;;3725205;38;20808;-59
2021/04/17 01:46:26;;;;;;;;;20.75;20.00;;;;;;;;3724986;37;20814;-59
2021/04/17 01:48:55;;;;;;;;;19.25;17.25;;;;;;;;3725227;38;20768;-58
2021/04/17 01:51:22;;;;;;;;;18.00;16.00;;;;;;;;3725126;37;20808;-58
2021/04/17 01:53:48;;;;;;;;;18.75;18.75;;;;;;;;3725228;38;20784;-59
2021/04/17 01:56:17;;;;;;;;;22.25;19.75;;;;;;;;3725186;37;20794;-59
2021/04/17 01:58:44;;;;;;;;;21.00;19.75;;;;;;;;3724895;37;21766;-59
2021/04/17 02:01:10;;;;;;;;;14.00;13.25;;;;;;;;3725043;37;20778;-59
2021/04/17 02:03:36;;;;;;;;;22.25;21.00;;;;;;;;3725118;37;20746;-59
2021/04/17 02:06:07;;;;;;;;;13.00;11.50;;;;;;;;3725322;38;17697;-58
2021/04/17 02:08:38;;;;;;;;;20.00;18.75;;;;;;;;3725391;38;20733;-59
2021/04/17 02:11:10;;;;;;;;;28.00;26.50;;;;;;;;3725133;37;21751;-58
2021/04/17 02:13:39;;;;;;;;;20.25;16.50;;;;;;;;3725034;38;21740;-58
2021/04/17 02:16:11;;;;;;;;;23.75;22.25;;;;;;;;3725409;38;21739;-59
2021/04/17 02:18:53;;;;;;;;;18.25;17.50;;;;;;;;3725170;37;21732;-59
2021/04/17 02:21:21;;;;;;;;;19.00;18.25;;;;;;;;3725273;37;20748;-58
2021/04/17 02:23:48;;;;;;;;;19.00;18.00;;;;;;;;3725149;37;20742;-58
2021/04/17 02:26:14;;;;;;;;;19.75;17.25;;;;;;;;3724676;37;21741;-58
2021/04/17 02:28:40;;;;;;;;;20.00;19.25;;;;;;;;3725010;37;21721;-58
2021/04/17 02:31:06;;;;;;;;;17.75;16.75;;;;;;;;3725290;37;21717;-58
2021/04/17 02:33:32;;;;;;;;;18.75;18.50;;;;;;;;3725221;37;18654;-57
2021/04/17 02:35:57;;;;;;;;;11.00;11.00;;;;;;;;3725383;38;18640;-59
2021/04/17 02:38:23;;;;;;;;;21.50;19.00;;;;;;;;3725240;37;18616;-61
2021/04/17 02:40:49;;;;;;;;;18.75;18.25;;;;;;;;3725318;37;18645;-58
2021/04/17 02:43:15;;;;;;;;;20.25;19.75;;;;;;;;3724818;37;18631;-59
2021/04/17 02:45:41;;;;;;;;;19.75;18.50;;;;;;;;3725225;37;18611;-59
2021/04/17 02:48:08;;;;;;;;;20.50;19.75;;;;;;;;3725336;38;18616;-58
2021/04/17 02:50:36;;;;;;;;;15.75;15.25;;;;;;;;3725334;38;18603;-57
2021/04/17 02:53:02;;;;;;;;;21.25;20.75;;;;;;;;3725274;37;21636;-58
2021/04/17 02:55:30;;;;;;;;;20.50;18.75;;;;;;;;3724775;38;21705;-58
2021/04/17 02:57:56;;;;;;;;;17.50;14.75;;;;;;;;3725141;37;21656;-59
2021/04/17 03:00:25;;;;;;;;;23.50;22.50;;;;;;;;3725410;37;18613;-58
2021/04/17 03:02:53;;;;;;;;;26.00;23.50;;;;;;;;3725337;37;18578;-59
2021/04/17 03:05:19;;;;;;;;;23.25;16.50;;;;;;;;3725131;37;21679;-58
2021/04/17 03:07:48;;;;;;;;;18.00;17.75;;;;;;;;3725335;37;21686;-58
2021/04/17 03:10:15;;;;;;;;;23.00;20.50;;;;;;;;3725103;38;21671;-59
2021/04/17 03:12:43;;;;;;;;;27.00;23.25;;;;;;;;3725232;38;21467;-58
2021/04/17 03:15:09;;;;;;;;;23.50;22.00;;;;;;;;3725071;37;21674;-58
2021/04/17 03:17:35;;;;;;;;;25.25;20.00;;;;;;;;3725481;38;18571;-59
2021/04/17 03:20:01;;;;;;;;;20.25;19.25;;;;;;;;3725424;38;21683;-61
2021/04/17 03:22:26;;;;;;;;;20.25;19.00;;;;;;;;3725549;37;21753;-58
2021/04/17 03:24:53;;;;;;;;;23.50;20.25;;;;;;;;3725582;38;18582;-58
2021/04/17 03:27:19;;;;;;;;;24.00;22.75;;;;;;;;3725390;37;18555;-59
2021/04/17 03:29:45;;;;;;;;;22.75;21.25;;;;;;;;3725265;37;21658;-59
2021/04/17 03:32:12;;;;;;;;;23.25;21.50;;;;;;;;3725267;38;21647;-58
2021/04/17 03:34:38;;;;;;;;;19.50;18.50;;;;;;;;3725107;38;18570;-57
2021/04/17 03:37:03;;;;;;;;;19.50;18.50;;;;;;;;3725237;37;21620;-57
2021/04/17 03:39:29;;;;;;;;;24.75;21.00;;;;;;;;3725238;38;18552;-58
2021/04/17 03:41:55;;;;;;;;;27.00;22.00;;;;;;;;3725300;37;18555;-58
2021/04/17 03:44:21;;;;;;;;;19.25;19.25;;;;;;;;3725560;37;18555;-58
2021/04/17 03:46:47;;;;;;;;;23.25;22.25;;;;;;;;3725821;37;18547;-57
2021/04/17 03:49:12;;;;;;;;;22.25;22.00;;;;;;;;3725238;37;18537;-59
2021/04/17 03:51:38;;;;;;;;;26.75;23.50;;;;;;;;3725482;37;18546;-59
2021/04/17 03:54:04;;;;;;;;;22.00;19.00;;;;;;;;3725292;37;18556;-59
2021/04/17 03:56:30;;;;;;;;;20.00;19.00;;;;;;;;3725334;37;18528;-57
2021/04/17 03:58:57;;;;;;;;;10.00;10.00;;;;;;;;3725205;38;21607;-60
2021/04/17 04:01:23;;;;;;;;;27.50;24.75;;;;;;;;3724891;37;18537;-58
2021/04/17 04:03:48;;;;;;;;;29.00;28.25;;;;;;;;3725245;38;21649;-58
2021/04/17 04:06:14;;;;;;;;;25.00;22.75;;;;;;;;3725295;37;18530;-58
2021/04/17 04:08:40;;;;;;;;;22.75;21.50;;;;;;;;3725389;38;18505;-58
2021/04/17 04:11:06;;;;;;;;;31.50;28.75;;;;;;;;3725397;38;18513;-58
2021/04/17 04:13:32;;;;;;;;;21.25;19.75;;;;;;;;3725234;37;18503;-58
2021/04/17 04:15:58;;;;;;;;;30.25;25.25;;;;;;;;3725359;38;18508;-57
2021/04/17 04:18:24;;;;;;;;;31.75;29.00;;;;;;;;3725201;38;21582;-59
2021/04/17 04:20:50;;;;;;;;;27.50;25.00;;;;;;;;3725440;37;18508;-59
2021/04/17 04:23:16;;;;;;;;;39.25;32.50;;;;;;;;3725241;38;18479;-58
2021/04/17 04:25:43;;;;;;;;;30.00;29.00;;;;;;;;3725315;38;18495;-59
2021/04/17 04:28:09;;;;;;;;;30.25;29.00;;;;;;;;3725204;37;18507;-58
2021/04/17 04:30:40;;;;;;;;;23.75;21.75;;;;;;;;3725334;38;21557;-59
2021/04/17 04:33:06;;;;;;;;;25.75;25.75;;;;;;;;3725537;38;18470;-59
2021/04/17 04:35:31;;;;;;;;;25.25;24.00;;;;;;;;3725251;38;21562;-59
2021/04/17 04:37:57;;;;;;;;;33.25;27.75;;;;;;;;3725206;38;18469;-60
2021/04/17 04:40:23;;;;;;;;;28.50;27.25;;;;;;;;3725501;38;18465;-59
2021/04/17 04:42:50;;;;;;;;;28.75;27.00;;;;;;;;3725397;37;18455;-59
2021/04/17 04:45:16;;;;;;;;;29.75;29.25;;;;;;;;3725181;37;18453;-58
2021/04/17 04:47:42;;;;;;;;;33.25;30.00;;;;;;;;3725165;37;21562;-59
2021/04/17 04:50:09;;;;;;;;;36.50;32.50;;;;;;;;3725270;37;21560;-59
2021/04/17 04:52:35;;;;;;;;;40.50;37.00;;;;;;;;3725514;38;18782;-59
2021/04/17 04:55:01;;;;;;;;;37.25;34.75;;;;;;;;3725389;38;21646;-61
2021/04/17 04:57:26;;;;;;;;;43.25;39.00;;;;;;;;3725213;38;18435;-60
2021/04/17 04:59:52;;;;;;;;;44.25;40.25;;;;;;;;3725468;37;21628;-59
2021/04/17 05:02:23;;;;;;;;;44.75;39.25;;;;;;;;3725294;37;18441;-59
2021/04/17 05:04:48;;;;;;;;;56.50;46.75;;;;;;;;3725443;37;18446;-60
2021/04/17 05:07:14;;;;;;;;;48.50;41.50;;;;;;;;3725267;37;21638;-59
2021/04/17 05:09:40;;;;;;;;;62.25;49.25;;;;;;;;3725445;37;18414;-60
2021/04/17 05:12:08;;;;;;;;;43.25;39.00;;;;;;;;3725522;37;18426;-62
2021/04/17 05:14:34;;;;;;;;;40.75;37.25;;;;;;;;3725372;37;21619;-62
2021/04/17 05:17:00;;;;;;;;;36.75;34.75;;;;;;;;3725200;38;21621;-60
2021/04/17 05:19:26;;;;;;;;;43.50;39.25;;;;;;;;3725208;37;21586;-60
2021/04/17 05:21:52;;;;;;;;;31.25;29.00;;;;;;;;3725162;37;21711;-61
2021/04/17 05:24:25;;;;;;;;;27.75;25.25;;;;;;;;3725064;37;18394;-61
2021/04/17 05:26:51;;;;;;;;;23.75;22.50;;;;;;;;3725404;38;21510;-61
2021/04/17 05:29:18;;;;;;;;;26.25;23.50;;;;;;;;3725583;38;21495;-60
2021/04/17 05:31:51;;;;;;;;;27.25;25.75;;;;;;;;3725437;38;21506;-64
2021/04/17 05:34:17;;;;;;;;;20.00;20.00;;;;;;;;3725557;37;18379;-59
2021/04/17 05:36:43;;;;;;;;;20.25;20.00;;;;;;;;3725526;38;21505;-60
2021/04/17 05:39:09;;;;;;;;;16.50;16.50;;;;;;;;3725289;37;18388;-58
2021/04/17 05:41:35;;;;;;;;;21.25;21.00;;;;;;;;3725338;38;21494;-58
2021/04/17 05:44:10;;;;;;;;;14.25;13.25;;;;;;;;3725196;37;18384;-59
2021/04/17 05:46:36;;;;;;;;;20.00;19.75;;;;;;;;3725561;37;18334;-60
2021/04/17 05:49:01;;;;;;;;;19.00;19.00;;;;;;;;3725182;37;21468;-59
2021/04/17 05:51:27;;;;;;;;;16.00;15.00;;;;;;;;3725842;38;18395;-59
2021/04/17 05:53:53;;;;;;;;;14.75;14.75;;;;;;;;3725566;38;18364;-60
2021/04/17 05:56:19;;;;;;;;;19.75;18.25;;;;;;;;3725487;38;18370;-58
2021/04/17 05:58:44;;;;;;;;;17.00;17.00;;;;;;;;3725420;37;18350;-60
2021/04/17 06:01:10;;;;;;;;;21.50;20.75;;;;;;;;3725354;38;18372;-61
2021/04/17 06:03:36;;;;;;;;;19.00;17.50;;;;;;;;3725897;38;18346;-61
2021/04/17 06:06:02;;;;;;;;;16.50;15.50;;;;;;;;3725506;37;18373;-61
2021/04/17 06:08:27;;;;;;;;;23.00;19.25;;;;;;;;3725610;37;18401;-62
2021/04/17 06:10:53;;;;;;;;;21.50;21.50;;;;;;;;3725681;38;18349;-60
2021/04/17 06:13:19;;;;;;;;;17.00;15.00;;;;;;;;3725629;37;18341;-61
2021/04/17 06:15:45;;;;;;;;;16.75;16.75;;;;;;;;3725581;37;21531;-61
2021/04/17 06:18:12;;;;;;;;;23.00;21.75;;;;;;;;3725716;37;18353;-60
2021/04/17 06:20:37;;;;;;;;;13.50;13.50;;;;;;;;3725926;37;18334;-62
2021/04/17 06:23:07;;;;;;;;;17.00;16.00;;;;;;;;3725531;37;21424;-58
2021/04/17 06:25:33;;;;;;;;;13.00;13.00;;;;;;;;3725323;37;18360;-58
2021/04/17 06:27:59;;;;;;;;;14.50;14.25;;;;;;;;3724549;38;21417;-58
2021/04/17 06:30:25;;;;;;;;;11.00;11.00;;;;;;;;3725186;37;21434;-58
2021/04/17 06:32:51;;;;;;;;;9.25;9.25;;;;;;;;3725442;37;18323;-58
2021/04/17 06:35:17;;;;;;;;;11.00;10.25;;;;;;;;3725027;38;18319;-58
2021/04/17 06:37:43;;;;;;;;;12.00;11.00;;;;;;;;3724316;38;18303;-57
2021/04/17 06:40:11;;;;;;;;;13.00;12.25;;;;;;;;3725195;37;21351;-58
2021/04/17 06:42:40;;;;;;;;;11.25;11.25;;;;;;;;3724857;37;18320;-58
2021/04/17 06:45:07;;;;;;;;;13.00;13.00;;;;;;;;3724309;37;21375;-59
2021/04/17 06:47:34;;;;;;;;;11.25;10.50;;;;;;;;3724418;37;21341;-57
2021/04/17 06:50:00;;;;;;;;;11.00;10.25;;;;;;;;3724686;38;21275;-59
2021/04/17 06:52:27;;;;;;;;;11.00;10.50;;;;;;;;3724667;37;21387;-59
2021/04/17 06:54:53;;;;;;;;;12.25;11.50;;;;;;;;3724794;37;21381;-59
2021/04/17 06:57:19;;;;;;;;;11.00;11.00;;;;;;;;3724902;38;21355;-59
2021/04/17 06:59:45;;;;;;;;;11.25;11.25;;;;;;;;3724672;37;21403;-59
2021/04/17 07:02:14;;;;;;;;;12.25;12.25;;;;;;;;3724993;37;21352;-59
2021/04/17 07:04:41;;;;;;;;;10.75;10.75;;;;;;;;3724525;37;18269;-58
2021/04/17 07:07:07;;;;;;;;;11.75;11.25;;;;;;;;3725061;37;21376;-59
2021/04/17 07:09:33;;;;;;;;;17.00;16.75;;;;;;;;3724784;38;21387;-59
2021/04/17 07:11:59;;;;;;;;;15.75;15.75;;;;;;;;3725381;37;18281;-59
2021/04/17 07:14:25;;;;;;;;;13.00;11.25;;;;;;;;3725101;38;21361;-59
2021/04/17 07:17:01;;;;;;;;;9.00;9.00;;;;;;;;3725744;37;18260;-59
2021/04/17 07:19:46;;;;;;;;;8.50;8.00;;;;;;;;3724843;38;21326;-60
2021/04/17 07:22:26;;;;;;;;;9.25;9.00;;;;;;;;3725249;38;21560;-60
2021/04/17 07:25:12;;;;;;;;;12.25;9.75;;;;;;;;3724978;38;21286;-59
2021/04/17 07:27:48;;;;;;;;;8.00;8.00;;;;;;;;3725442;38;21328;-58
2021/04/17 07:30:32;;;;;;;;;14.00;13.00;;;;;;;;3724623;38;21395;-57
2021/04/17 07:33:09;;;;;;;;;14.75;13.00;;;;;;;;3725439;37;21395;-58
2021/04/17 07:35:39;;;;;;;;;10.25;10.00;;;;;;;;3725471;38;21325;-58
2021/04/17 07:38:13;;;;;;;;;11.25;10.50;;;;;;;;3725464;37;21325;-59
2021/04/17 07:40:39;;;;;;;;;13.75;11.00;;;;;;;;3725491;37;21332;-58
2021/04/17 07:43:06;;;;;;;;;14.25;13.75;;;;;;;;3725355;37;21341;-58
2021/04/17 07:45:33;;;;;;;;;15.00;11.00;;;;;;;;3725674;38;21318;-58
2021/04/17 07:48:18;;;;;;;;;12.25;10.75;;;;;;;;3725778;38;18233;-63
2021/04/17 07:50:44;;;;;;;;;10.50;8.00;;;;;;;;3725415;37;21360;-58
2021/04/17 07:53:30;;;;;;;;;13.75;11.50;;;;;;;;3725551;38;21271;-59
2021/04/17 07:55:57;;;;;;;;;9.50;9.50;;;;;;;;3725475;38;21294;-58
2021/04/17 07:58:23;;;;;;;;;12.50;11.00;;;;;;;;3725209;37;21283;-58
2021/04/17 08:00:49;;;;;;;;;10.50;10.50;;;;;;;;3725352;37;21302;-59
2021/04/17 08:03:18;;;;;;;;;11.00;10.75;;;;;;;;3725491;37;21291;-58
2021/04/17 08:05:45;;;;;;;;;10.00;9.00;;;;;;;;3725593;37;21345;-58
2021/04/17 08:08:10;;;;;;;;;12.75;12.75;;;;;;;;3725473;38;21201;-60
2021/04/17 08:10:38;;;;;;;;;11.50;11.50;;;;;;;;3725456;38;21321;-58
2021/04/17 08:13:07;;;;;;;;;14.00;13.75;;;;;;;;3725469;38;18176;-59
2021/04/17 08:15:33;;;;;;;;;9.75;9.75;;;;;;;;3725393;38;21266;-58
2021/04/17 08:17:59;;;;;;;;;12.75;10.75;;;;;;;;3725388;37;21224;-59
2021/04/17 08:20:25;;;;;;;;;12.25;10.75;;;;;;;;3725502;38;21383;-58
2021/04/17 08:22:54;;;;;;;;;11.50;11.00;;;;;;;;3725863;37;18182;-59
2021/04/17 08:25:21;;;;;;;;;10.75;10.00;;;;;;;;3725698;38;18181;-60
2021/04/17 08:27:48;;;;;;;;;9.50;9.00;;;;;;;;3725732;38;21047;-57
2021/04/17 08:30:19;;;;;;;;;12.75;11.75;;;;;;;;3726498;37;21187;-59
2021/04/17 08:32:46;;;;;;;;;12.00;11.00;;;;;;;;3726085;38;21246;-59
2021/04/17 08:35:14;;;;;;;;;11.00;10.00;;;;;;;;3725593;38;21272;-59
2021/04/17 08:38:12;;;;;;;;;13.75;11.50;;;;;;;;3725489;38;21300;-59
2021/04/17 08:40:48;;;;;;;;;17.50;15.00;;;;;;;;3725547;37;21265;-58
2021/04/17 08:43:34;;;;;;;;;14.00;12.75;;;;;;;;3725756;38;21251;-59
2021/04/17 08:46:02;;;;;;;;;13.00;13.00;;;;;;;;3725496;38;21317;-59
2021/04/17 08:49:02;;;;;;;;;14.75;13.75;;;;;;;;3725545;37;21273;-59
2021/04/17 08:51:37;;;;;;;;;13.00;11.50;;;;;;;;3725589;38;21264;-58
2021/04/17 08:54:21;;;;;;;;;13.75;13.25;;;;;;;;3725785;38;21256;-59
2021/04/17 08:57:00;;;;;;;;;16.25;14.00;;;;;;;;3725829;38;21236;-59
2021/04/17 08:59:27;;;;;;;;;11.25;11.00;;;;;;;;3725641;37;21251;-61
2021/04/17 09:01:53;;;;;;;;;13.50;13.50;;;;;;;;3725596;38;21262;-59
2021/04/17 09:04:21;;;;;;;;;11.25;11.00;;;;;;;;3725639;38;21249;-58
2021/04/17 09:06:48;;;;;;;;;8.25;7.50;;;;;;;;3726245;38;21192;-60
2021/04/17 09:09:32;;;;;;;;;12.00;11.25;;;;;;;;3725811;37;21063;-59
2021/04/17 09:12:28;;;;;;;;;11.75;11.50;;;;;;;;3725896;38;21202;-59
2021/04/17 09:14:55;;;;;;;;;18.50;15.25;;;;;;;;3725788;37;21268;-59
2021/04/17 09:17:34;;;;;;;;;12.50;11.25;;;;;;;;3725225;37;21214;-58
2021/04/17 09:20:01;;;;;;;;;16.00;14.75;;;;;;;;3725482;38;21235;-60
2021/04/17 09:22:47;;;;;;;;;12.50;12.50;;;;;;;;3725367;38;21253;-58
2021/04/17 09:25:14;;;;;;;;;13.75;12.25;;;;;;;;3725569;37;21293;-61
2021/04/17 09:27:44;;;;;;;;;13.50;13.50;;;;;;;;3725590;37;21206;-59
2021/04/17 09:30:20;;;;;;;;;12.50;12.50;;;;;;;;3725392;37;21230;-58
2021/04/17 09:32:50;;;;;;;;;14.00;13.25;;;;;;;;3725336;37;21194;-59
2021/04/17 09:35:23;;;;;;;;;17.50;15.00;;;;;;;;3724977;38;21209;-58
2021/04/17 09:37:58;;;;;;;;;18.50;17.00;;;;;;;;3724881;38;21197;-59
2021/04/17 09:40:40;;;;;;;;;17.00;15.50;;;;;;;;3725100;37;21151;-58
2021/04/17 09:43:07;;;;;;;;;13.25;12.25;;;;;;;;3725115;37;21114;-59
2021/04/17 09:45:34;;;;;;;;;19.00;17.50;;;;;;;;3725006;38;21143;-62
2021/04/17 09:48:01;;;;;;;;;15.00;14.50;;;;;;;;3725576;38;21160;-59
2021/04/17 09:50:28;;;;;;;;;19.00;17.50;;;;;;;;3725275;37;21166;-59
2021/04/17 09:52:56;;;;;;;;;17.25;16.50;;;;;;;;3725123;38;21199;-58
2021/04/17 09:55:22;;;;;;;;;15.25;15.00;;;;;;;;3725467;37;21116;-60
2021/04/17 09:57:48;;;;;;;;;16.00;16.00;;;;;;;;3725315;38;21195;-58
2021/04/17 10:00:14;;;;;;;;;14.25;14.25;;;;;;;;3725464;37;18034;-58
2021/04/17 10:02:44;;;;;;;;;15.75;15.75;;;;;;;;3725620;38;21160;-59
2021/04/17 10:05:14;;;;;;;;;16.00;16.00;;;;;;;;3725569;37;21161;-58
2021/04/17 10:07:41;;;;;;;;;15.00;14.75;;;;;;;;3725639;37;21149;-58
2021/04/17 10:10:07;;;;;;;;;18.25;17.50;;;;;;;;3725779;37;21102;-60
2021/04/17 10:12:45;;;;;;;;;19.00;17.75;;;;;;;;3725734;37;21108;-59
2021/04/17 10:15:18;;;;;;;;;18.25;18.00;;;;;;;;3727072;38;21119;-59
2021/04/17 10:17:45;;;;;;;;;16.75;15.25;;;;;;;;3726046;37;21170;-59
2021/04/17 10:20:11;;;;;;;;;17.75;17.00;;;;;;;;3726563;38;21152;-60
2021/04/17 10:22:37;;;;;;;;;18.75;18.75;;;;;;;;3726149;38;21122;-59
2021/04/17 10:25:03;;;;;;;;;18.25;18.00;;;;;;;;3726550;37;21088;-61
2021/04/17 10:27:34;;;;;;;;;15.25;14.75;;;;;;;;3726596;37;18009;-59
2021/04/17 10:30:01;;;;;;;;;17.75;16.50;;;;;;;;3729784;37;21082;-58
2021/04/17 10:32:38;;;;;;;;;16.50;16.50;;;;;;;;3740129;37;20821;-59
2021/04/17 10:35:08;;;;;;;;;17.00;17.00;;;;;;;;3741284;38;21076;-59
2021/04/17 10:37:43;;;;;;;;;17.50;17.50;;;;;;;;3741398;37;21105;-59
2021/04/17 10:40:14;;;;;;;;;0.00;0.00;;;;;;;;3741135;37;21113;-58
2021/04/17 10:42:55;;;;;;;;;13.25;13.25;;;;;;;;3740997;37;20944;-58
2021/04/17 10:45:24;;;;;;;;;13.00;13.00;;;;;;;;3740846;37;21107;-58
2021/04/17 10:48:17;;;;;;;;;15.00;13.25;;;;;;;;3740349;38;21115;-58
2021/04/17 10:51:11;;;;;;;;;14.50;14.00;;;;;;;;3740753;37;21132;-59
2021/04/17 10:53:40;;;;;;;;;16.00;15.00;;;;;;;;3741024;37;21071;-58
2021/04/17 10:56:22;;;;;;;;;13.50;13.00;;;;;;;;3736929;38;21088;-59
2021/04/17 10:58:55;;;;;;;;;16.00;14.75;;;;;;;;3725927;37;21112;-58
2021/04/17 11:01:25;;;;;;;;;13.50;13.00;;;;;;;;3726619;38;21079;-58
2021/04/17 11:03:52;;;;;;;;;16.00;16.00;;;;;;;;3726748;38;21162;-58
2021/04/17 11:06:28;;;;;;;;;15.50;15.00;;;;;;;;3726871;38;21095;-58
2021/04/17 11:09:06;;;;;;;;;17.25;17.25;;;;;;;;3726866;37;21103;-59
2021/04/17 11:11:32;;;;;;;;;17.50;17.50;;;;;;;;3726426;38;21094;-58
2021/04/17 11:14:00;;;;;;;;;15.75;14.25;;;;;;;;3726683;38;21094;-59
2021/04/17 11:16:36;;;;;;;;;16.50;13.00;;;;;;;;3726409;38;21057;-58
2021/04/17 11:19:02;;;;;;;;;17.00;14.25;;;;;;;;3726413;37;21086;-60
2021/04/17 11:21:28;;;;;;;;;21.00;19.00;;;;;;;;3726397;38;21031;-59
2021/04/17 11:24:00;;;;;;;;;21.00;20.50;;;;;;;;3726468;37;21018;-58
2021/04/17 11:26:27;;;;;;;;;19.50;19.50;;;;;;;;3726020;38;17937;-59
2021/04/17 11:28:55;;;;;;;;;18.75;18.75;;;;;;;;3725815;37;21048;-58
2021/04/17 11:31:24;;;;;;;;;22.50;22.50;;;;;;;;3725872;37;21050;-59
2021/04/17 11:33:51;;;;;;;;;21.00;19.75;;;;;;;;3725717;37;21027;-58
2021/04/17 11:36:17;;;;;;;;;17.75;16.25;;;;;;;;3726738;37;21001;-58
2021/04/17 11:38:43;;;;;;;;;19.00;18.25;;;;;;;;3726015;38;21069;-60
2021/04/17 11:41:09;;;;;;;;;16.00;15.25;;;;;;;;3726341;37;21044;-59
2021/04/17 11:43:34;;;;;;;;;13.75;11.50;;;;;;;;3725651;37;21053;-58
2021/04/17 11:46:00;;;;;;;;;12.75;12.75;;;;;;;;3726109;37;17914;-58
2021/04/17 11:48:26;;;;;;;;;15.50;14.50;;;;;;;;3726066;37;17910;-59
2021/04/17 11:50:52;;;;;;;;;12.25;11.75;;;;;;;;3725542;37;17882;-59
2021/04/17 11:53:22;;;;;;;;;13.50;12.25;;;;;;;;3725318;37;17905;-59
2021/04/17 11:55:55;;;;;;;;;13.50;12.75;;;;;;;;3724989;37;21034;-59
2021/04/17 11:58:21;;;;;;;;;13.50;13.00;;;;;;;;3725210;38;21075;-58
2021/04/17 12:00:48;;;;;;;;;13.50;13.00;;;;;;;;3725098;38;21041;-60
2021/04/17 12:03:20;;;;;;;;;8.00;8.00;;;;;;;;3725500;37;20979;-59
2021/04/17 12:05:48;;;;;;;;;9.50;9.50;;;;;;;;3725596;38;17887;-58
2021/04/17 12:08:14;;;;;;;;;12.25;11.50;;;;;;;;3725892;37;20981;-57
2021/04/17 12:10:40;;;;;;;;;9.75;9.25;;;;;;;;3725483;37;20997;-58
2021/04/17 12:13:07;;;;;;;;;9.75;9.75;;;;;;;;3726037;38;17887;-59
2021/04/17 12:15:34;;;;;;;;;10.50;10.25;;;;;;;;3726192;37;20869;-61
2021/04/17 12:18:00;;;;;;;;;8.50;8.25;;;;;;;;3725141;37;21168;-58
2021/04/17 12:20:32;;;;;;;;;10.50;10.25;;;;;;;;3725483;38;20897;-58
2021/04/17 12:22:58;;;;;;;;;6.00;6.00;;;;;;;;3725582;37;17877;-58
2021/04/17 12:25:26;;;;;;;;;8.50;7.25;;;;;;;;3725336;38;20873;-58
2021/04/17 12:27:51;;;;;;;;;12.00;10.75;;;;;;;;3725062;37;20982;-58
2021/04/17 12:30:19;;;;;;;;;13.00;11.50;;;;;;;;3725218;38;20910;-59
2021/04/17 12:32:45;;;;;;;;;14.25;13.75;;;;;;;;3724481;38;20988;-60
2021/04/17 12:35:14;;;;;;;;;12.00;12.00;;;;;;;;3724975;37;20919;-60
2021/04/17 12:37:40;;;;;;;;;16.00;16.00;;;;;;;;3725242;37;17832;-59
2021/04/17 12:40:07;;;;;;;;;11.50;11.00;;;;;;;;3725365;38;20973;-59
2021/04/17 12:42:33;;;;;;;;;10.00;9.75;;;;;;;;3725614;37;20951;-60
2021/04/17 12:45:00;;;;;;;;;7.25;7.00;;;;;;;;3726016;38;20827;-59
2021/04/17 12:47:31;;;;;;;;;10.00;10.00;;;;;;;;3725715;37;17815;-61
2021/04/17 12:49:57;;;;;;;;;12.50;12.25;;;;;;;;3725839;38;20902;-59
2021/04/17 12:52:22;;;;;;;;;7.25;7.25;;;;;;;;3725283;37;20930;-59
2021/04/17 12:54:48;;;;;;;;;9.00;7.00;;;;;;;;3725335;38;17830;-59
2021/04/17 12:57:20;;;;;;;;;8.25;7.25;;;;;;;;3725668;38;17807;-59
2021/04/17 12:59:46;;;;;;;;;7.50;7.25;;;;;;;;3725323;37;17806;-59
2021/04/17 13:02:12;;;;;;;;;7.00;7.00;;;;;;;;3725029;38;20821;-59
2021/04/17 13:04:38;;;;;;;;;8.75;7.00;;;;;;;;3725322;38;20852;-61
2021/04/17 13:07:04;;;;;;;;;7.25;6.50;;;;;;;;3725550;37;17819;-59
2021/04/17 13:09:30;;;;;;;;;7.25;6.50;;;;;;;;3725603;38;17797;-60
2021/04/17 13:11:57;;;;;;;;;6.75;6.75;;;;;;;;3725413;37;20802;-59
2021/04/17 13:14:23;;;;;;;;;3.75;2.25;;;;;;;;3725548;37;20816;-59
2021/04/17 13:16:49;;;;;;;;;6.75;6.75;;;;;;;;3725685;37;17776;-61
2021/04/17 13:19:16;;;;;;;;;6.00;6.00;;;;;;;;3725338;38;20817;-59
2021/04/17 13:21:41;;;;;;;;;5.00;5.00;;;;;;;;3725659;37;17783;-58
2021/04/17 13:24:08;;;;;;;;;6.00;6.00;;;;;;;;3725365;37;20792;-58
2021/04/17 13:26:34;;;;;;;;;4.25;4.25;;;;;;;;3725506;37;17791;-59
2021/04/17 13:29:00;;;;;;;;;6.00;6.00;;;;;;;;3724954;38;20983;-59
2021/04/17 13:31:26;;;;;;;;;6.25;6.25;;;;;;;;3725351;37;20768;-59
2021/04/17 13:33:52;;;;;;;;;11.25;10.25;;;;;;;;3725376;38;20760;-59
2021/04/17 13:36:17;;;;;;;;;10.50;10.50;;;;;;;;3725367;37;17768;-59
2021/04/17 13:38:43;;;;;;;;;6.00;6.00;;;;;;;;3725418;38;17772;-59
2021/04/17 13:41:15;;;;;;;;;6.00;5.25;;;;;;;;3725298;38;17755;-60
2021/04/17 13:43:41;;;;;;;;;8.00;7.00;;;;;;;;3725438;37;17764;-59
2021/04/17 13:46:06;;;;;;;;;11.50;9.75;;;;;;;;3725270;38;20808;-59
2021/04/17 13:48:32;;;;;;;;;6.00;5.25;;;;;;;;3725368;37;17726;-60
2021/04/17 13:50:58;;;;;;;;;5.25;5.00;;;;;;;;3725212;37;17738;-58
2021/04/17 13:53:24;;;;;;;;;6.50;6.50;;;;;;;;3724835;37;17726;-59
2021/04/17 13:55:50;;;;;;;;;6.75;6.75;;;;;;;;3724790;37;20774;-57
2021/04/17 13:58:16;;;;;;;;;13.50;12.75;;;;;;;;3725082;37;17724;-58
2021/04/17 14:00:42;;;;;;;;;11.50;10.75;;;;;;;;3725112;38;20857;-58
2021/04/17 14:03:08;;;;;;;;;8.50;7.50;;;;;;;;3725369;37;17709;-58
2021/04/17 14:05:39;;;;;;;;;10.25;9.75;;;;;;;;3725033;37;17736;-59
2021/04/17 14:08:10;;;;;;;;;6.00;6.00;;;;;;;;3725377;37;20812;-58
2021/04/17 14:10:38;;;;;;;;;12.25;12.25;;;;;;;;3726274;38;20756;-59
2021/04/17 14:13:04;;;;;;;;;5.00;5.00;;;;;;;;3725388;38;20856;-57
2021/04/17 14:15:30;;;;;;;;;17.75;17.75;;;;;;;;3725202;38;20903;-58
2021/04/17 14:17:56;;;;;;;;;7.00;7.00;;;;;;;;3725318;37;17696;-59
2021/04/17 14:20:22;;;;;;;;;15.00;12.75;;;;;;;;3725343;37;17709;-59
2021/04/17 14:22:48;;;;;;;;;19.25;17.50;;;;;;;;3725107;37;20846;-58
2021/04/17 14:25:15;;;;;;;;;10.75;8.50;;;;;;;;3725323;38;17695;-59
2021/04/17 14:27:41;;;;;;;;;6.25;5.75;;;;;;;;3725387;38;17687;-59
2021/04/17 14:30:07;;;;;;;;;7.75;7.00;;;;;;;;3725447;37;20737;-60